createdAt,value
2024-05-09T00:01:29.940Z,98375.75
2024-05-09T00:05:32.075Z,98366.44
2024-05-09T00:09:34.046Z,98365.78
2024-05-09T00:13:35.720Z,98367.75
2024-05-09T00:17:37.711Z,98357.59
2024-05-09T00:21:45.236Z,98350.72
2024-05-09T00:25:47.161Z,98354.66
2024-05-09T00:29:49.125Z,98351.72
2024-05-09T00:33:51.177Z,98341.09
2024-05-09T00:37:53.264Z,98348.16
2024-05-09T00:41:55.048Z,98349.47
2024-05-09T00:45:57.660Z,98353.69
2024-05-09T00:49:59.837Z,98348.13
2024-05-09T00:54:02.408Z,98356.63
2024-05-09T00:58:05.858Z,98353.50
2024-05-09T01:02:08.014Z,98357.03
2024-05-09T01:06:09.791Z,98354.88
2024-05-09T01:10:17.249Z,98354.88
2024-05-09T01:14:23.209Z,98350.94
2024-05-09T01:18:25.689Z,98355.19
2024-05-09T01:22:29.530Z,98352.25
2024-05-09T01:26:31.269Z,98367.31
2024-05-09T01:30:35.947Z,98357.19
2024-05-09T01:34:39.317Z,98357.53
2024-05-09T01:38:41.188Z,98356.09
2024-05-09T01:42:42.978Z,98354.63
2024-05-09T01:50:54.520Z,98346.13
2024-05-09T01:54:56.542Z,98332.06
2024-05-09T01:58:58.586Z,98352.47
2024-05-09T02:03:00.906Z,98345.97
2024-05-09T02:07:02.966Z,98344.94
2024-05-09T02:11:05.082Z,98348.75
2024-05-09T02:15:07.078Z,98333.84
2024-05-09T02:19:09.104Z,98330.41
2024-05-09T02:23:11.547Z,98344.16
2024-05-09T02:27:13.831Z,98358.22
2024-05-09T02:31:15.753Z,98348.06
2024-05-09T02:35:19.146Z,98357.25
2024-05-09T02:39:24.233Z,98350.06
2024-05-09T02:43:26.292Z,98346.94
2024-05-09T02:51:44.899Z,98366.09
2024-05-09T02:55:46.672Z,98361.69
2024-05-09T02:59:48.617Z,98365.28
2024-05-09T03:03:51.796Z,98354.16
2024-05-09T03:07:53.789Z,98362.16
2024-05-09T03:11:55.626Z,98360.53
2024-05-09T03:16:00.163Z,98366.75
2024-05-09T03:20:05.160Z,98365.09
2024-05-09T03:24:07.882Z,98366.91
2024-05-09T03:28:09.979Z,98361.69
2024-05-09T03:32:11.882Z,98365.94
2024-05-09T03:36:13.971Z,98364.94
2024-05-09T03:40:20.900Z,98364.78
2024-05-09T03:44:26.084Z,98368.88
2024-05-09T03:48:28.613Z,98371.31
2024-05-09T03:52:30.356Z,98376.09
2024-05-09T03:56:32.374Z,98373.16
2024-05-09T04:00:38.531Z,98374.28
2024-05-09T04:04:42.472Z,98376.28
2024-05-09T04:08:44.457Z,98378.25
2024-05-09T04:12:46.170Z,98373.16
2024-05-09T04:16:48.112Z,98389.06
2024-05-09T04:20:50.090Z,98390.69
2024-05-09T04:24:53.043Z,98399.28
2024-05-09T04:28:54.926Z,98396.31
2024-05-09T04:32:56.722Z,98401.22
2024-05-09T04:36:58.561Z,98394.34
2024-05-09T04:41:00.450Z,98406.44
2024-05-09T04:45:02.292Z,98401.50
2024-05-09T04:49:04.143Z,98404.06
2024-05-09T04:53:10.668Z,98409.81
2024-05-09T04:57:13.294Z,98412.44
2024-05-09T05:01:16.376Z,98403.91
2024-05-09T05:05:18.386Z,98409.66
2024-05-09T05:09:20.097Z,98413.59
2024-05-09T05:13:24.163Z,98418.19
2024-05-09T05:17:26.703Z,98415.91
2024-05-09T05:21:28.750Z,98422.13
2024-05-09T05:25:30.599Z,98420.50
2024-05-09T05:29:32.651Z,98424.94
2024-05-09T05:33:34.523Z,98418.88
2024-05-09T05:37:36.526Z,98420.50
2024-05-09T05:41:38.458Z,98426.38
2024-05-09T05:45:40.238Z,98433.28
2024-05-09T05:49:42.124Z,98433.13
2024-05-09T05:53:44.983Z,98436.38
2024-05-09T05:57:47.021Z,98440.13
2024-05-09T06:01:48.906Z,98445.38
2024-05-09T06:05:50.730Z,98440.09
2024-05-09T06:09:52.656Z,98444.34
2024-05-09T06:13:54.500Z,98449.25
2024-05-09T06:17:56.526Z,98444.28
2024-05-09T06:22:02.004Z,98444.22
2024-05-09T06:26:04.816Z,98441.19
2024-05-09T06:30:09.953Z,98444.84
2024-05-09T06:34:14.300Z,98439.28
2024-05-09T06:38:16.170Z,98442.97
2024-05-09T06:42:18.152Z,98433.63
2024-05-09T06:46:19.839Z,98443.22
2024-05-09T06:50:24.405Z,98440.03
2024-05-09T06:54:30.351Z,98440.94
2024-05-09T06:58:32.143Z,98432.66
2024-05-09T07:02:34.177Z,98428.44
2024-05-09T07:06:35.973Z,98428.63
2024-05-09T07:10:38.507Z,98427.84
2024-05-09T07:19:44.516Z,98427.03
2024-05-09T07:23:47.425Z,98428.34
2024-05-09T07:27:49.312Z,98427.47
2024-05-09T07:31:51.488Z,98426.06
2024-05-09T07:35:53.346Z,98419.50
2024-05-09T07:39:55.220Z,98416.16
2024-05-09T07:43:57.187Z,98413.03
2024-05-09T07:53:27.107Z,98422.63
2024-05-09T07:56:26.245Z,98418.34
2024-05-09T08:00:31.512Z,98421.16
2024-05-09T08:04:34.063Z,98407.84
2024-05-09T08:08:36.111Z,98411.53
2024-05-09T08:12:38.100Z,98408.53
2024-05-09T08:16:43.059Z,98412.84
2024-05-09T08:20:48.574Z,98423.56
2024-05-09T08:24:50.887Z,98415.97
2024-05-09T08:28:52.916Z,98412.38
2024-05-09T08:32:54.831Z,98409.28
2024-05-09T08:36:59.657Z,98400.19
2024-05-09T08:41:04.340Z,98401.97
2024-05-09T08:45:06.507Z,98392.47
2024-05-09T08:49:08.824Z,98404.88
2024-05-09T08:53:10.831Z,98400.56
2024-05-09T08:57:13.764Z,98396.31
2024-05-09T09:01:17.815Z,98388.84
2024-05-09T09:05:24.536Z,98388.13
2024-05-09T09:09:27.565Z,98393.81
2024-05-09T09:13:29.321Z,98383.09
2024-05-09T09:17:31.374Z,98381.88
2024-05-09T09:21:33.261Z,98383.13
2024-05-09T09:25:35.335Z,98385.56
2024-05-09T09:29:39.665Z,98388.78
2024-05-09T09:34:28.078Z,98386.03
2024-05-09T09:38:31.958Z,98384.50
2024-05-09T09:42:37.547Z,98365.72
2024-05-09T09:46:40.730Z,98373.81
2024-05-09T09:50:43.469Z,98373.03
2024-05-09T09:54:46.074Z,98375.22
2024-05-09T09:58:48.642Z,98375.22
2024-05-09T10:02:50.434Z,98375.72
2024-05-09T10:06:56.972Z,98374.59
2024-05-09T10:10:58.850Z,98379.06
2024-05-09T10:15:08.055Z,98370.47
2024-05-09T10:19:21.534Z,98371.81
2024-05-09T10:23:26.684Z,98368.44
2024-05-09T10:27:30.276Z,98366.63
2024-05-09T10:31:32.603Z,98366.94
2024-05-09T10:35:34.608Z,98359.50
2024-05-09T10:39:39.919Z,98352.09
2024-05-09T10:43:42.218Z,98354.84
2024-05-09T10:47:44.130Z,98361.28
2024-05-09T10:51:48.608Z,98345.69
2024-05-09T10:56:00.822Z,98340.81
2024-05-09T11:00:03.113Z,98338.75
2024-05-09T11:04:05.844Z,98336.69
2024-05-09T11:08:09.212Z,98333.88
2024-05-09T11:12:11.434Z,98333.22
2024-05-09T11:16:17.533Z,98334.19
2024-05-09T11:20:26.806Z,98329.94
2024-05-09T11:24:35.694Z,98330.59
2024-05-09T11:28:37.884Z,98321.78
2024-05-09T11:32:39.828Z,98310.44
2024-05-09T11:36:41.771Z,98314.94
2024-05-09T11:40:43.615Z,98311.13
2024-05-09T11:44:45.381Z,98317.63
2024-05-09T11:48:47.370Z,98309.34
2024-05-09T11:52:49.408Z,98308.19
2024-05-09T11:56:51.926Z,98303.66
2024-05-09T12:00:53.718Z,98291.41
2024-05-09T12:04:55.797Z,98292.03
2024-05-09T12:08:57.855Z,98295.75
2024-05-09T12:12:59.607Z,98288.09
2024-05-09T12:17:04.012Z,98289.44
2024-05-09T12:21:06.204Z,98280.03
2024-05-09T12:25:08.534Z,98269.22
2024-05-09T12:29:11.799Z,98280.03
2024-05-09T12:33:14.510Z,98278.13
2024-05-09T12:37:16.790Z,98270.25
2024-05-09T12:41:18.649Z,98267.34
2024-05-09T12:45:23.310Z,98259.88
2024-05-09T12:49:25.406Z,98266.34
2024-05-09T12:53:27.376Z,98268.56
2024-05-09T12:57:29.286Z,98268.53
2024-05-09T13:01:31.261Z,98251.81
2024-05-09T13:05:33.785Z,98251.66
2024-05-09T13:09:37.025Z,98241.78
2024-05-09T13:13:39.570Z,98242.13
2024-05-09T13:17:42.529Z,98233.91
2024-05-09T13:21:46.006Z,98233.31
2024-05-09T13:40:12.025Z,98230.38
2024-05-09T13:44:16.342Z,98221.94
2024-05-09T13:48:18.574Z,98217.63
2024-05-09T13:52:20.929Z,98210.22
2024-05-09T13:56:23.268Z,98207.00
2024-05-09T14:09:47.639Z,98202.31
2024-05-09T14:13:49.386Z,98193.03
2024-05-09T14:17:51.333Z,98195.44
2024-05-09T14:21:53.360Z,98186.22
2024-05-09T14:25:55.528Z,98182.44
2024-05-09T14:29:57.486Z,98184.81
2024-05-09T14:33:59.606Z,98182.03
2024-05-09T14:38:01.695Z,98179.69
2024-05-09T14:42:03.747Z,98177.19
2024-05-09T14:46:05.930Z,98178.16
2024-05-09T14:55:29.783Z,98169.84
2024-05-09T14:59:31.582Z,98164.91
2024-05-09T15:04:17.363Z,98164.19
2024-05-09T15:08:34.565Z,98165.50
2024-05-09T15:12:36.557Z,98162.94
2024-05-09T15:16:38.760Z,98166.50
2024-05-09T15:21:08.588Z,98159.50
2024-05-09T15:25:10.424Z,98154.38
2024-05-09T15:29:12.819Z,98148.94
2024-05-09T15:33:14.737Z,98149.06
2024-05-09T15:37:16.668Z,98130.31
2024-05-09T15:41:37.119Z,98138.81
2024-05-09T15:45:40.415Z,98142.75
2024-05-09T15:49:43.442Z,98131.69
2024-05-09T15:53:45.313Z,98129.69
2024-05-09T15:57:47.252Z,98126.56
2024-05-09T16:06:10.855Z,98117.06
2024-05-09T16:10:19.956Z,98127.50
2024-05-09T16:14:25.330Z,98125.25
2024-05-09T16:18:27.108Z,98122.13
2024-05-09T16:22:28.880Z,98119.16
2024-05-09T16:26:30.852Z,98116.22
2024-05-09T16:30:35.438Z,98120.94
2024-05-09T16:34:38.382Z,98122.53
2024-05-09T16:38:41.708Z,98126.84
2024-05-09T16:42:43.672Z,98122.34
2024-05-09T16:46:45.623Z,98119.91
2024-05-09T16:50:47.687Z,98119.91
2024-05-09T16:54:49.503Z,98114.88
2024-05-09T16:58:51.764Z,98121.28
2024-05-09T17:02:54.813Z,98116.63
2024-05-09T17:06:57.032Z,98118.50
2024-05-09T17:10:59.199Z,98118.53
2024-05-09T17:15:01.150Z,98124.31
2024-05-09T17:19:03.084Z,98115.59
2024-05-09T17:23:13.787Z,98112.53
2024-05-09T17:27:16.314Z,98100.19
2024-05-09T17:31:18.405Z,98107.28
2024-05-09T17:40:42.783Z,98113.91
2024-05-09T17:44:44.902Z,98127.88
2024-05-09T17:48:47.003Z,98123.09
2024-05-09T17:52:51.618Z,98129.25
2024-05-09T17:56:53.370Z,98131.56
2024-05-09T18:00:58.192Z,98135.47
2024-05-09T18:05:02.052Z,98135.66
2024-05-09T18:09:04.038Z,98135.25
2024-05-09T18:13:06.419Z,98132.81
2024-05-09T18:17:08.806Z,98139.28
2024-05-09T18:21:10.821Z,98146.53
2024-05-09T18:25:12.858Z,98141.38
2024-05-09T18:29:16.152Z,98145.16
2024-05-09T18:33:19.453Z,98140.16
2024-05-09T18:37:21.768Z,98151.81
2024-05-09T18:41:23.774Z,98152.50
2024-05-09T18:45:25.675Z,98159.88
2024-05-09T18:49:28.055Z,98164.00
2024-05-09T18:53:30.180Z,98167.72
2024-05-09T18:57:34.246Z,98174.00
2024-05-09T19:01:40.999Z,98176.25
2024-05-09T19:05:45.053Z,98188.00
2024-05-09T19:09:48.174Z,98189.03
2024-05-09T19:13:50.170Z,98185.94
2024-05-09T19:17:52.116Z,98198.38
2024-05-09T19:21:55.472Z,98197.03
2024-05-09T19:25:57.467Z,98199.53
2024-05-09T19:30:00.318Z,98197.19
2024-05-09T19:34:02.409Z,98200.09
2024-05-09T19:38:05.633Z,98201.41
2024-05-09T19:42:07.778Z,98208.75
2024-05-09T19:46:10.386Z,98206.03
2024-05-09T19:50:19.495Z,98212.34
2024-05-09T19:54:24.854Z,98214.22
2024-05-09T19:58:26.809Z,98216.44
2024-05-09T20:02:29.060Z,98220.34
2024-05-09T20:06:31.296Z,98219.19
2024-05-09T20:10:35.449Z,98212.41
2024-05-09T20:14:41.207Z,98214.69
2024-05-09T20:18:43.240Z,98213.75
2024-05-09T20:22:45.359Z,98223.97
2024-05-09T20:26:47.300Z,98218.75
2024-05-09T20:30:49.183Z,98222.72
2024-05-09T20:34:52.465Z,98222.22
2024-05-09T20:38:54.298Z,98222.94
2024-05-09T20:42:56.413Z,98224.78
2024-05-09T20:46:58.256Z,98220.91
2024-05-09T20:51:00.279Z,98229.94
2024-05-09T20:55:02.431Z,98235.41
2024-05-09T20:59:04.335Z,98233.00
2024-05-09T21:03:07.226Z,98229.56
2024-05-09T21:07:09.451Z,98226.34
2024-05-09T21:11:11.308Z,98229.91
2024-05-09T21:15:13.296Z,98228.28
2024-05-09T21:19:15.129Z,98228.94
2024-05-09T21:23:16.833Z,98231.59
2024-05-09T21:27:19.274Z,98233.41
2024-05-09T21:31:21.567Z,98236.66
2024-05-09T21:35:23.442Z,98242.41
2024-05-09T21:39:25.204Z,98242.25
2024-05-09T21:43:28.865Z,98243.38
2024-05-09T21:47:31.001Z,98242.06
2024-05-09T21:51:33.147Z,98235.84
2024-05-09T21:55:35.043Z,98243.06
2024-05-09T21:59:40.408Z,98239.28
2024-05-09T22:03:42.260Z,98243.03
2024-05-09T22:07:44.119Z,98245.97
2024-05-09T22:11:47.438Z,98241.06
2024-05-09T22:15:59.185Z,98248.59
2024-05-09T22:20:01.641Z,98245.31
2024-05-09T22:24:03.771Z,98248.56
2024-05-09T22:28:06.216Z,98256.09
2024-05-09T22:32:08.532Z,98257.50
2024-05-09T22:36:10.445Z,98259.94
2024-05-09T22:40:20.697Z,98255.81
2024-05-09T22:44:30.391Z,98267.38
2024-05-09T22:48:32.559Z,98259.97
2024-05-09T22:52:34.552Z,98260.63
2024-05-09T22:56:36.691Z,98257.13
2024-05-09T23:00:38.962Z,98255.16
2024-05-09T23:04:41.306Z,98254.78
2024-05-09T23:08:43.132Z,98256.91
2024-05-09T23:12:45.085Z,98261.47
2024-05-09T23:16:47.081Z,98253.09
2024-05-09T23:20:48.966Z,98249.16
2024-05-09T23:24:50.729Z,98245.53
2024-05-09T23:28:52.664Z,98246.00
2024-05-09T23:32:55.015Z,98241.38
2024-05-09T23:36:57.219Z,98228.97
2024-05-09T23:40:59.306Z,98238.88
2024-05-09T23:45:01.246Z,98231.66
2024-05-09T23:49:03.342Z,98233.94
2024-05-09T23:53:07.249Z,98228.44
2024-05-09T23:57:10.320Z,98226.31
